Bahias De Huatulco, Mexico

8:20 PM CDT on August 28, 2014 (GMT -0500)
Puerto Escondido | Change Station
CLOSE
Current Station
Airport
Location: Puerto Escondido,
Elevation: 289 ft
Nearby Weather Stations

Elev 289 ft 15.88 °N, 97.09 °W | Updated 1 hour ago

Scattered Clouds
Scattered Clouds
86 °F
Feels Like 97 °F
N
12
Wind Variable Wind from SSW

Today
High -- | Low -- °F
--% Chance of Precip.
Yesterday
High -- | Low -- °F
Precip. -- in
7:11 AM 7:40 PM
Waxing Crescent, 11% visible
Pressure 29.88 in
Visibility 7.0 miles
Clouds Few 1500 ft
Scattered Clouds 7000 ft
Scattered Clouds 28000 ft
Heat Index 97 °F
Dew Point 77 °F
Humidity 74%
Rainfall 0.00 in
Snow Depth Not available.
UV 1 out of 12
Pollen Not available.
Air Quality Not available.
Flu Activity Not available.
METAR MMPS 282341Z 20010KT 7SM FEW015 SCT070 SCT280 30/25 A2992 RMK SLP118 52019 921 8/124 HZY

More Conditions Fewer Conditions

Pressure 29.88 in
Visibility 7.0 miles
Clouds Few 1500 ft
Scattered Clouds 7000 ft
Scattered Clouds 28000 ft
Heat Index 97 °F
Dew Point 77 °F
Humidity 74%
Rainfall 0.00 in
Snow Depth Not available.
UV 1 out of 12
Pollen Not available.
Air Quality Not available.
Flu Activity Not available.
METAR MMPS 282341Z 20010KT 7SM FEW015 SCT070 SCT280 30/25 A2992 RMK SLP118 52019 921 8/124 HZY

More Conditions Fewer Conditions

10-Day Weather Forecast

Almanac

Astronomy

Aug. 28, 2014 Rise Set
Actual Time 7:11 AM CDT 7:40 PM CDT
Civil Twilight 6:49 AM CDT 8:02 PM CDT
Nautical Twilight 6:24 AM CDT 8:27 PM CDT
Astronomical Twilight 5:58 AM CDT 8:53 PM CDT
Moon 9:32 AM CDT (8/28) 9:41 PM CDT (8/28)
Length of Visible Light 13h 12m
Length of Day
12h 28m
Tomorrow will be 0m 50s shorter.
Waxing Crescent, 11% of the Moon is Illuminated
Today
Waxing Crescent
Sep 2
First Quarter
Sep 8
Full
Sep 15
Last Quarter
Sep 24
New

Today's Extremes

Country Highs Country Lows

Community

WunderPhotos

Upload Photos

1,748,126 photos uploaded!

Nearby

Snow Depth

Not available.

Earthquake Activity

City Distance Mag. Time & Date
No recent earthquake activity has been reported nearby.
Minimum magnitude displayed is 2.5.

Coastal Water Temperatures

Place Temperature
No Stations Reporting

Nearby Weather Stations